sensor_id;sensor_type;location;lat;lon;timestamp;noise_LAeq;noise_LA_min;noise_LA_max;noise_LA01;noise_LA95
69615;Laerm;56821;52.486;4.680;2023-08-07T00:00:06;46.99;46.11;49.38;;
69615;Laerm;56821;52.486;4.680;2023-08-07T00:00:19;47.17;45.94;53.93;;
69615;Laerm;56821;52.486;4.680;2023-08-07T00:00:29;49.13;46.19;51.61;;
69615;Laerm;56821;52.486;4.680;2023-08-07T00:00:39;51.08;48.99;52.48;;
69615;Laerm;56821;52.486;4.680;2023-08-07T00:00:50;48.18;46.28;52.26;;
69615;Laerm;56821;52.486;4.680;2023-08-07T00:01:00;46.91;45.96;48.07;;
69615;Laerm;56821;52.486;4.680;2023-08-07T00:01:10;47.01;45.98;50.83;;
69615;Laerm;56821;52.486;4.680;2023-08-07T00:01:20;46.90;46.11;47.76;;
69615;Laerm;56821;52.486;4.680;2023-08-07T00:01:31;46.94;46.00;48.22;;
69615;Laerm;56821;52.486;4.680;2023-08-07T00:01:41;46.90;45.98;47.70;;
69615;Laerm;56821;52.486;4.680;2023-08-07T00:01:51;46.88;45.95;47.64;;
69615;Laerm;56821;52.486;4.680;2023-08-07T00:02:01;46.92;45.83;47.85;;
69615;Laerm;56821;52.486;4.680;2023-08-07T00:02:12;46.88;45.91;47.75;;
69615;Laerm;56821;52.486;4.680;2023-08-07T00:02:22;46.87;46.03;47.67;;
69615;Laerm;56821;52.486;4.680;2023-08-07T00:02:32;46.89;45.88;47.81;;
69615;Laerm;56821;52.486;4.680;2023-08-07T00:02:42;46.91;45.77;47.68;;
69615;Laerm;56821;52.486;4.680;2023-08-07T00:02:53;46.86;46.00;47.78;;
69615;Laerm;56821;52.486;4.680;2023-08-07T00:03:03;46.89;46.18;47.69;;
69615;Laerm;56821;52.486;4.680;2023-08-07T00:03:13;46.87;46.09;47.71;;
69615;Laerm;56821;52.486;4.680;2023-08-07T00:03:28;46.95;46.04;48.96;;
69615;Laerm;56821;52.486;4.680;2023-08-07T00:03:38;46.97;46.05;48.33;;
69615;Laerm;56821;52.486;4.680;2023-08-07T00:03:48;46.97;46.10;47.77;;
69615;Laerm;56821;52.486;4.680;2023-08-07T00:03:59;47.01;46.07;48.37;;
69615;Laerm;56821;52.486;4.680;2023-08-07T00:04:09;47.03;46.13;48.36;;
69615;Laerm;56821;52.486;4.680;2023-08-07T00:04:19;46.94;46.11;47.76;;
69615;Laerm;56821;52.486;4.680;2023-08-07T00:04:29;47.05;46.05;47.92;;
69615;Laerm;56821;52.486;4.680;2023-08-07T00:04:40;47.03;46.11;48.20;;
69615;Laerm;56821;52.486;4.680;2023-08-07T00:04:50;46.97;45.99;48.10;;
69615;Laerm;56821;52.486;4.680;2023-08-07T00:05:00;46.91;45.70;47.81;;
69615;Laerm;56821;52.486;4.680;2023-08-07T00:05:10;46.88;46.03;47.58;;
69615;Laerm;56821;52.486;4.680;2023-08-07T00:05:21;46.89;46.11;47.69;;
69615;Laerm;56821;52.486;4.680;2023-08-07T00:05:31;46.91;45.86;47.79;;
69615;Laerm;56821;52.486;4.680;2023-08-07T00:05:44;46.94;45.92;47.91;;
69615;Laerm;56821;52.486;4.680;2023-08-07T00:05:54;46.92;45.99;48.29;;
69615;Laerm;56821;52.486;4.680;2023-08-07T00:06:05;46.88;46.03;47.73;;
69615;Laerm;56821;52.486;4.680;2023-08-07T00:06:15;46.90;46.03;47.94;;
69615;Laerm;56821;52.486;4.680;2023-08-07T00:06:25;46.88;46.08;47.62;;
69615;Laerm;56821;52.486;4.680;2023-08-07T00:06:35;46.86;45.88;47.83;;
69615;Laerm;56821;52.486;4.680;2023-08-07T00:06:46;46.91;45.89;47.76;;
69615;Laerm;56821;52.486;4.680;2023-08-07T00:06:56;46.89;46.05;48.04;;
69615;Laerm;56821;52.486;4.680;2023-08-07T00:07:06;46.90;46.00;47.81;;
69615;Laerm;56821;52.486;4.680;2023-08-07T00:07:16;46.92;46.05;47.70;;
69615;Laerm;56821;52.486;4.680;2023-08-07T00:07:28;46.89;46.09;47.75;;
69615;Laerm;56821;52.486;4.680;2023-08-07T00:07:38;46.86;45.96;47.97;;
69615;Laerm;56821;52.486;4.680;2023-08-07T00:07:48;46.89;45.89;48.12;;
69615;Laerm;56821;52.486;4.680;2023-08-07T00:07:59;46.90;45.96;47.81;;
69615;Laerm;56821;52.486;4.680;2023-08-07T00:08:09;46.89;45.91;47.79;;
69615;Laerm;56821;52.486;4.680;2023-08-07T00:08:19;46.89;45.87;47.82;;
69615;Laerm;56821;52.486;4.680;2023-08-07T00:08:29;46.90;45.93;47.67;;
69615;Laerm;56821;52.486;4.680;2023-08-07T00:08:41;46.90;45.96;47.90;;
69615;Laerm;56821;52.486;4.680;2023-08-07T00:08:51;46.92;45.97;47.89;;
69615;Laerm;56821;52.486;4.680;2023-08-07T00:09:02;46.88;46.18;47.96;;
69615;Laerm;56821;52.486;4.680;2023-08-07T00:09:12;46.94;46.00;47.84;;
69615;Laerm;56821;52.486;4.680;2023-08-07T00:09:23;46.95;45.93;47.87;;
69615;Laerm;56821;52.486;4.680;2023-08-07T00:09:33;46.92;46.10;47.73;;
69615;Laerm;56821;52.486;4.680;2023-08-07T00:09:43;46.94;46.12;48.41;;
69615;Laerm;56821;52.486;4.680;2023-08-07T00:09:53;46.87;45.98;47.90;;
69615;Laerm;56821;52.486;4.680;2023-08-07T00:10:04;46.89;45.86;47.93;;
69615;Laerm;56821;52.486;4.680;2023-08-07T00:10:14;46.90;45.98;47.86;;
69615;Laerm;56821;52.486;4.680;2023-08-07T00:10:25;46.92;46.12;47.79;;
69615;Laerm;56821;52.486;4.680;2023-08-07T00:10:35;46.90;46.05;47.93;;
69615;Laerm;56821;52.486;4.680;2023-08-07T00:10:46;46.89;46.05;47.81;;
69615;Laerm;56821;52.486;4.680;2023-08-07T00:11:07;46.89;45.76;47.74;;
69615;Laerm;56821;52.486;4.680;2023-08-07T00:11:17;46.87;45.92;47.72;;
69615;Laerm;56821;52.486;4.680;2023-08-07T00:11:27;46.88;46.04;47.62;;
69615;Laerm;56821;52.486;4.680;2023-08-07T00:11:38;46.95;46.15;47.89;;
69615;Laerm;56821;52.486;4.680;2023-08-07T00:11:48;46.93;46.04;47.54;;
69615;Laerm;56821;52.486;4.680;2023-08-07T00:11:58;46.90;45.79;47.68;;
69615;Laerm;56821;52.486;4.680;2023-08-07T00:12:09;46.94;45.93;47.90;;
69615;Laerm;56821;52.486;4.680;2023-08-07T00:12:19;46.98;45.98;47.85;;
69615;Laerm;56821;52.486;4.680;2023-08-07T00:12:29;47.01;45.97;48.26;;
69615;Laerm;56821;52.486;4.680;2023-08-07T00:12:40;46.96;45.89;47.73;;
69615;Laerm;56821;52.486;4.680;2023-08-07T00:12:50;46.93;45.85;47.67;;
69615;Laerm;56821;52.486;4.680;2023-08-07T00:13:00;46.91;45.93;47.80;;
69615;Laerm;56821;52.486;4.680;2023-08-07T00:13:10;46.89;46.17;47.78;;
69615;Laerm;56821;52.486;4.680;2023-08-07T00:13:21;46.92;46.13;47.72;;
69615;Laerm;56821;52.486;4.680;2023-08-07T00:13:31;46.91;45.83;47.93;;
69615;Laerm;56821;52.486;4.680;2023-08-07T00:13:42;47.06;46.20;48.13;;
69615;Laerm;56821;52.486;4.680;2023-08-07T00:13:52;47.28;46.11;48.26;;
69615;Laerm;56821;52.486;4.680;2023-08-07T00:14:02;47.22;46.06;49.27;;
69615;Laerm;56821;52.486;4.680;2023-08-07T00:14:12;47.04;45.99;48.62;;
69615;Laerm;56821;52.486;4.680;2023-08-07T00:14:23;47.14;46.24;50.52;;
69615;Laerm;56821;52.486;4.680;2023-08-07T00:14:33;47.61;46.04;51.79;;
69615;Laerm;56821;52.486;4.680;2023-08-07T00:14:43;46.99;46.03;48.29;;
69615;Laerm;56821;52.486;4.680;2023-08-07T00:14:53;46.98;45.97;48.79;;
69615;Laerm;56821;52.486;4.680;2023-08-07T00:15:04;47.31;46.08;48.85;;
69615;Laerm;56821;52.486;4.680;2023-08-07T00:15:14;47.17;46.09;48.22;;
69615;Laerm;56821;52.486;4.680;2023-08-07T00:15:24;46.95;45.94;47.79;;
69615;Laerm;56821;52.486;4.680;2023-08-07T00:15:37;46.97;46.09;47.86;;
69615;Laerm;56821;52.486;4.680;2023-08-07T00:15:47;46.93;46.15;48.62;;
69615;Laerm;56821;52.486;4.680;2023-08-07T00:15:57;46.90;45.85;47.95;;
69615;Laerm;56821;52.486;4.680;2023-08-07T00:16:07;46.95;45.77;50.25;;
69615;Laerm;56821;52.486;4.680;2023-08-07T00:16:20;46.90;46.12;47.71;;
69615;Laerm;56821;52.486;4.680;2023-08-07T00:16:30;46.93;46.15;47.66;;
69615;Laerm;56821;52.486;4.680;2023-08-07T00:16:41;46.92;46.03;47.68;;
69615;Laerm;56821;52.486;4.680;2023-08-07T00:16:51;46.88;46.11;47.90;;
69615;Laerm;56821;52.486;4.680;2023-08-07T00:17:02;46.90;46.14;47.86;;
69615;Laerm;56821;52.486;4.680;2023-08-07T00:17:12;46.86;45.96;47.63;;
69615;Laerm;56821;52.486;4.680;2023-08-07T00:17:22;46.88;46.06;47.67;;
69615;Laerm;56821;52.486;4.680;2023-08-07T00:17:33;46.91;45.90;49.07;;
69615;Laerm;56821;52.486;4.680;2023-08-07T00:17:43;46.92;46.03;49.07;;
69615;Laerm;56821;52.486;4.680;2023-08-07T00:17:53;46.92;46.15;47.73;;
69615;Laerm;56821;52.486;4.680;2023-08-07T00:18:03;46.91;45.90;47.58;;
69615;Laerm;56821;52.486;4.680;2023-08-07T00:18:14;46.89;45.88;47.78;;
69615;Laerm;56821;52.486;4.680;2023-08-07T00:18:24;46.90;45.99;47.82;;
69615;Laerm;56821;52.486;4.680;2023-08-07T00:18:34;46.88;45.78;48.02;;
69615;Laerm;56821;52.486;4.680;2023-08-07T00:18:44;46.88;45.98;47.85;;
69615;Laerm;56821;52.486;4.680;2023-08-07T00:18:54;46.91;46.14;47.74;;
69615;Laerm;56821;52.486;4.680;2023-08-07T00:19:06;46.94;45.92;48.02;;
69615;Laerm;56821;52.486;4.680;2023-08-07T00:19:16;47.53;46.36;50.09;;
69615;Laerm;56821;52.486;4.680;2023-08-07T00:19:26;47.38;46.29;48.49;;
69615;Laerm;56821;52.486;4.680;2023-08-07T00:19:36;47.98;46.13;50.17;;
69615;Laerm;56821;52.486;4.680;2023-08-07T00:19:47;46.92;45.99;48.17;;
69615;Laerm;56821;52.486;4.680;2023-08-07T00:19:57;46.96;46.18;47.93;;
69615;Laerm;56821;52.486;4.680;2023-08-07T00:20:08;46.97;45.92;47.92;;
69615;Laerm;56821;52.486;4.680;2023-08-07T00:20:18;47.01;45.80;49.80;;
69615;Laerm;56821;52.486;4.680;2023-08-07T00:20:28;47.46;46.06;52.56;;
69615;Laerm;56821;52.486;4.680;2023-08-07T00:20:38;46.88;46.07;47.59;;
69615;Laerm;56821;52.486;4.680;2023-08-07T00:20:48;46.89;45.92;47.72;;
69615;Laerm;56821;52.486;4.680;2023-08-07T00:20:59;46.95;46.03;48.71;;
69615;Laerm;56821;52.486;4.680;2023-08-07T00:21:09;46.97;45.87;48.36;;
69615;Laerm;56821;52.486;4.680;2023-08-07T00:21:20;46.92;46.06;48.04;;
69615;Laerm;56821;52.486;4.680;2023-08-07T00:21:30;47.15;46.23;52.90;;
69615;Laerm;56821;52.486;4.680;2023-08-07T00:21:40;47.70;46.11;54.12;;
69615;Laerm;56821;52.486;4.680;2023-08-07T00:21:51;46.93;45.76;47.89;;
69615;Laerm;56821;52.486;4.680;2023-08-07T00:22:02;47.06;46.16;47.82;;
69615;Laerm;56821;52.486;4.680;2023-08-07T00:22:12;47.11;45.93;48.48;;
69615;Laerm;56821;52.486;4.680;2023-08-07T00:22:22;46.97;45.95;47.91;;
69615;Laerm;56821;52.486;4.680;2023-08-07T00:22:33;47.13;46.23;49.40;;
69615;Laerm;56821;52.486;4.680;2023-08-07T00:22:43;46.91;46.11;49.01;;
69615;Laerm;56821;52.486;4.680;2023-08-07T00:22:54;46.91;45.99;47.83;;
69615;Laerm;56821;52.486;4.680;2023-08-07T00:23:04;46.90;45.95;47.93;;
69615;Laerm;56821;52.486;4.680;2023-08-07T00:23:14;46.88;46.10;47.96;;
69615;Laerm;56821;52.486;4.680;2023-08-07T00:23:25;46.88;45.97;47.58;;
69615;Laerm;56821;52.486;4.680;2023-08-07T00:23:35;46.86;45.98;47.77;;
69615;Laerm;56821;52.486;4.680;2023-08-07T00:23:45;46.90;45.89;47.81;;
69615;Laerm;56821;52.486;4.680;2023-08-07T00:23:55;46.87;46.01;47.59;;
69615;Laerm;56821;52.486;4.680;2023-08-07T00:24:06;47.61;46.04;52.26;;
69615;Laerm;56821;52.486;4.680;2023-08-07T00:24:16;46.93;46.00;48.69;;
69615;Laerm;56821;52.486;4.680;2023-08-07T00:24:26;47.58;45.83;58.52;;
69615;Laerm;56821;52.486;4.680;2023-08-07T00:24:36;47.30;45.85;51.16;;
69615;Laerm;56821;52.486;4.680;2023-08-07T00:24:46;47.08;46.07;47.85;;
69615;Laerm;56821;52.486;4.680;2023-08-07T00:24:57;46.93;46.04;48.38;;
69615;Laerm;56821;52.486;4.680;2023-08-07T00:25:07;46.91;45.98;49.84;;
69615;Laerm;56821;52.486;4.680;2023-08-07T00:25:18;47.61;46.20;51.32;;
69615;Laerm;56821;52.486;4.680;2023-08-07T00:25:28;46.92;46.14;47.92;;
69615;Laerm;56821;52.486;4.680;2023-08-07T00:25:38;46.89;46.12;47.70;;
69615;Laerm;56821;52.486;4.680;2023-08-07T00:25:49;46.90;46.04;47.77;;
69615;Laerm;56821;52.486;4.680;2023-08-07T00:25:59;46.91;45.99;47.76;;
69615;Laerm;56821;52.486;4.680;2023-08-07T00:26:09;46.92;46.00;47.60;;
69615;Laerm;56821;52.486;4.680;2023-08-07T00:26:19;47.39;46.15;53.16;;
69615;Laerm;56821;52.486;4.680;2023-08-07T00:26:30;47.06;46.12;48.08;;
69615;Laerm;56821;52.486;4.680;2023-08-07T00:26:42;47.09;46.03;48.57;;
69615;Laerm;56821;52.486;4.680;2023-08-07T00:26:52;47.06;45.98;48.86;;
69615;Laerm;56821;52.486;4.680;2023-08-07T00:27:02;47.25;46.19;48.13;;
69615;Laerm;56821;52.486;4.680;2023-08-07T00:27:13;47.06;46.14;47.98;;
69615;Laerm;56821;52.486;4.680;2023-08-07T00:27:24;47.19;46.39;48.40;;
69615;Laerm;56821;52.486;4.680;2023-08-07T00:27:34;47.25;45.87;48.66;;
69615;Laerm;56821;52.486;4.680;2023-08-07T00:27:44;47.18;46.01;48.61;;
69615;Laerm;56821;52.486;4.680;2023-08-07T00:27:54;47.13;46.26;48.61;;
69615;Laerm;56821;52.486;4.680;2023-08-07T00:28:05;46.98;46.10;47.93;;
69615;Laerm;56821;52.486;4.680;2023-08-07T00:28:15;47.09;46.02;48.17;;
69615;Laerm;56821;52.486;4.680;2023-08-07T00:28:25;47.28;46.13;48.46;;
69615;Laerm;56821;52.486;4.680;2023-08-07T00:28:35;47.29;46.18;48.76;;
69615;Laerm;56821;52.486;4.680;2023-08-07T00:28:46;47.22;46.04;48.67;;
69615;Laerm;56821;52.486;4.680;2023-08-07T00:28:56;47.44;46.37;48.49;;
69615;Laerm;56821;52.486;4.680;2023-08-07T00:29:06;47.37;46.49;49.09;;
69615;Laerm;56821;52.486;4.680;2023-08-07T00:29:16;47.30;46.31;48.35;;
69615;Laerm;56821;52.486;4.680;2023-08-07T00:29:27;47.33;46.36;48.35;;
69615;Laerm;56821;52.486;4.680;2023-08-07T00:29:37;47.15;46.20;49.13;;
69615;Laerm;56821;52.486;4.680;2023-08-07T00:29:47;47.48;46.06;50.29;;
69615;Laerm;56821;52.486;4.680;2023-08-07T00:29:57;47.78;46.22;49.69;;
69615;Laerm;56821;52.486;4.680;2023-08-07T00:30:08;47.84;46.47;49.42;;
69615;Laerm;56821;52.486;4.680;2023-08-07T00:30:19;47.73;46.41;50.46;;
69615;Laerm;56821;52.486;4.680;2023-08-07T00:30:29;50.26;46.14;60.75;;
69615;Laerm;56821;52.486;4.680;2023-08-07T00:30:39;55.45;46.28;61.79;;
69615;Laerm;56821;52.486;4.680;2023-08-07T00:30:49;47.96;46.20;53.67;;
69615;Laerm;56821;52.486;4.680;2023-08-07T00:31:00;47.06;46.21;49.28;;
69615;Laerm;56821;52.486;4.680;2023-08-07T00:31:10;46.95;45.95;49.02;;
69615;Laerm;56821;52.486;4.680;2023-08-07T00:31:20;46.91;45.96;47.69;;
69615;Laerm;56821;52.486;4.680;2023-08-07T00:31:31;46.96;45.97;48.05;;
69615;Laerm;56821;52.486;4.680;2023-08-07T00:31:41;46.98;46.01;48.12;;
69615;Laerm;56821;52.486;4.680;2023-08-07T00:31:51;47.08;46.26;47.83;;
69615;Laerm;56821;52.486;4.680;2023-08-07T00:32:02;47.07;46.19;47.93;;
69615;Laerm;56821;52.486;4.680;2023-08-07T00:32:12;47.09;46.26;47.87;;
69615;Laerm;56821;52.486;4.680;2023-08-07T00:32:22;47.15;46.20;48.17;;
69615;Laerm;56821;52.486;4.680;2023-08-07T00:32:33;47.15;46.32;48.34;;
69615;Laerm;56821;52.486;4.680;2023-08-07T00:32:43;47.13;46.22;47.87;;
69615;Laerm;56821;52.486;4.680;2023-08-07T00:32:53;47.09;46.01;48.23;;
69615;Laerm;56821;52.486;4.680;2023-08-07T00:33:03;47.06;46.01;47.85;;
69615;Laerm;56821;52.486;4.680;2023-08-07T00:33:14;47.07;46.09;47.94;;
69615;Laerm;56821;52.486;4.680;2023-08-07T00:33:24;47.04;46.17;48.06;;
69615;Laerm;56821;52.486;4.680;2023-08-07T00:33:34;47.04;46.03;47.78;;
69615;Laerm;56821;52.486;4.680;2023-08-07T00:33:44;47.06;46.01;47.95;;
69615;Laerm;56821;52.486;4.680;2023-08-07T00:33:55;47.02;46.30;47.79;;
69615;Laerm;56821;52.486;4.680;2023-08-07T00:34:06;47.00;46.01;48.09;;
69615;Laerm;56821;52.486;4.680;2023-08-07T00:34:16;47.03;46.23;47.87;;
69615;Laerm;56821;52.486;4.680;2023-08-07T00:34:26;47.01;46.24;47.82;;
69615;Laerm;56821;52.486;4.680;2023-08-07T00:34:36;47.01;46.11;47.87;;
69615;Laerm;56821;52.486;4.680;2023-08-07T00:34:47;47.02;46.20;48.13;;
69615;Laerm;56821;52.486;4.680;2023-08-07T00:34:57;47.02;45.96;47.67;;
69615;Laerm;56821;52.486;4.680;2023-08-07T00:35:07;47.81;46.30;48.95;;
69615;Laerm;56821;52.486;4.680;2023-08-07T00:35:18;49.22;47.03;53.30;;
69615;Laerm;56821;52.486;4.680;2023-08-07T00:35:28;49.48;46.97;54.19;;
69615;Laerm;56821;52.486;4.680;2023-08-07T00:35:38;48.64;47.45;50.23;;
69615;Laerm;56821;52.486;4.680;2023-08-07T00:35:49;48.58;47.39;49.62;;
69615;Laerm;56821;52.486;4.680;2023-08-07T00:35:59;48.36;47.39;49.65;;
69615;Laerm;56821;52.486;4.680;2023-08-07T00:36:09;48.39;47.41;49.35;;
69615;Laerm;56821;52.486;4.680;2023-08-07T00:36:19;48.34;47.27;49.53;;
69615;Laerm;56821;52.486;4.680;2023-08-07T00:36:29;48.47;47.45;49.87;;
69615;Laerm;56821;52.486;4.680;2023-08-07T00:36:41;48.42;47.20;49.68;;
69615;Laerm;56821;52.486;4.680;2023-08-07T00:36:51;48.43;47.31;49.27;;
69615;Laerm;56821;52.486;4.680;2023-08-07T00:37:01;48.57;47.37;49.71;;
69615;Laerm;56821;52.486;4.680;2023-08-07T00:37:12;48.40;47.25;49.50;;
69615;Laerm;56821;52.486;4.680;2023-08-07T00:37:22;48.23;47.27;49.27;;
69615;Laerm;56821;52.486;4.680;2023-08-07T00:37:32;48.60;47.54;49.75;;
69615;Laerm;56821;52.486;4.680;2023-08-07T00:37:42;48.67;47.63;49.60;;
69615;Laerm;56821;52.486;4.680;2023-08-07T00:37:52;48.77;47.79;49.77;;
69615;Laerm;56821;52.486;4.680;2023-08-07T00:38:03;48.85;47.63;49.79;;
69615;Laerm;56821;52.486;4.680;2023-08-07T00:38:13;48.88;47.79;49.97;;
69615;Laerm;56821;52.486;4.680;2023-08-07T00:38:23;48.84;47.85;49.73;;
69615;Laerm;56821;52.486;4.680;2023-08-07T00:38:34;48.48;47.43;49.40;;
69615;Laerm;56821;52.486;4.680;2023-08-07T00:38:44;48.25;47.05;49.36;;
69615;Laerm;56821;52.486;4.680;2023-08-07T00:38:54;47.86;46.62;48.83;;
69615;Laerm;56821;52.486;4.680;2023-08-07T00:39:04;47.51;46.48;48.69;;
69615;Laerm;56821;52.486;4.680;2023-08-07T00:39:14;47.52;46.33;48.50;;
69615;Laerm;56821;52.486;4.680;2023-08-07T00:39:25;47.69;46.63;49.21;;
69615;Laerm;56821;52.486;4.680;2023-08-07T00:39:35;47.61;46.42;48.66;;
69615;Laerm;56821;52.486;4.680;2023-08-07T00:39:45;47.61;46.44;48.47;;
69615;Laerm;56821;52.486;4.680;2023-08-07T00:39:55;47.68;46.68;48.63;;
69615;Laerm;56821;52.486;4.680;2023-08-07T00:40:06;47.60;46.87;48.46;;
69615;Laerm;56821;52.486;4.680;2023-08-07T00:40:16;47.62;46.27;48.86;;
69615;Laerm;56821;52.486;4.680;2023-08-07T00:40:27;47.39;46.46;48.32;;
69615;Laerm;56821;52.486;4.680;2023-08-07T00:40:40;47.77;46.38;48.92;;
69615;Laerm;56821;52.486;4.680;2023-08-07T00:40:50;47.72;46.45;48.83;;
69615;Laerm;56821;52.486;4.680;2023-08-07T00:41:01;47.77;46.59;49.32;;
69615;Laerm;56821;52.486;4.680;2023-08-07T00:41:11;47.58;46.34;48.73;;
69615;Laerm;56821;52.486;4.680;2023-08-07T00:41:21;47.57;46.24;48.82;;
69615;Laerm;56821;52.486;4.680;2023-08-07T00:41:31;47.73;46.48;48.75;;
69615;Laerm;56821;52.486;4.680;2023-08-07T00:41:42;47.61;46.41;48.72;;
69615;Laerm;56821;52.486;4.680;2023-08-07T00:41:52;47.52;46.21;48.53;;
69615;Laerm;56821;52.486;4.680;2023-08-07T00:42:02;47.29;46.26;48.29;;
69615;Laerm;56821;52.486;4.680;2023-08-07T00:42:13;47.21;46.24;47.94;;
69615;Laerm;56821;52.486;4.680;2023-08-07T00:42:23;47.12;46.15;47.96;;
69615;Laerm;56821;52.486;4.680;2023-08-07T00:42:33;47.26;45.99;48.25;;
69615;Laerm;56821;52.486;4.680;2023-08-07T00:42:43;47.32;46.07;48.38;;
69615;Laerm;56821;52.486;4.680;2023-08-07T00:42:54;47.23;46.34;48.23;;
69615;Laerm;56821;52.486;4.680;2023-08-07T00:43:04;47.30;46.06;48.35;;
69615;Laerm;56821;52.486;4.680;2023-08-07T00:43:14;47.20;46.08;48.14;;
69615;Laerm;56821;52.486;4.680;2023-08-07T00:43:24;47.19;45.84;48.00;;
69615;Laerm;56821;52.486;4.680;2023-08-07T00:43:35;47.12;46.30;48.08;;
69615;Laerm;56821;52.486;4.680;2023-08-07T00:43:45;47.03;46.06;47.86;;
69615;Laerm;56821;52.486;4.680;2023-08-07T00:43:56;47.04;46.12;47.80;;
69615;Laerm;56821;52.486;4.680;2023-08-07T00:44:06;47.10;46.28;48.16;;
69615;Laerm;56821;52.486;4.680;2023-08-07T00:44:16;47.34;46.02;48.43;;
69615;Laerm;56821;52.486;4.680;2023-08-07T00:44:26;47.43;46.45;48.36;;
69615;Laerm;56821;52.486;4.680;2023-08-07T00:44:36;48.63;46.42;49.80;;
69615;Laerm;56821;52.486;4.680;2023-08-07T00:44:47;48.75;47.07;50.25;;
69615;Laerm;56821;52.486;4.680;2023-08-07T00:44:57;48.49;46.97;49.63;;
69615;Laerm;56821;52.486;4.680;2023-08-07T00:45:07;48.28;46.76;49.40;;
69615;Laerm;56821;52.486;4.680;2023-08-07T00:45:18;47.78;46.80;48.61;;
69615;Laerm;56821;52.486;4.680;2023-08-07T00:45:28;48.06;46.94;48.91;;
69615;Laerm;56821;52.486;4.680;2023-08-07T00:45:41;47.56;45.93;48.87;;
69615;Laerm;56821;52.486;4.680;2023-08-07T00:45:52;46.98;46.15;47.86;;
69615;Laerm;56821;52.486;4.680;2023-08-07T00:46:03;46.99;46.24;47.68;;
69615;Laerm;56821;52.486;4.680;2023-08-07T00:46:13;47.04;46.06;47.82;;
69615;Laerm;56821;52.486;4.680;2023-08-07T00:46:24;47.05;46.20;47.97;;
69615;Laerm;56821;52.486;4.680;2023-08-07T00:46:34;47.05;46.21;47.96;;
69615;Laerm;56821;52.486;4.680;2023-08-07T00:46:45;47.09;46.09;48.04;;
69615;Laerm;56821;52.486;4.680;2023-08-07T00:46:56;46.99;46.17;47.75;;
69615;Laerm;56821;52.486;4.680;2023-08-07T00:47:06;47.08;46.22;48.02;;
69615;Laerm;56821;52.486;4.680;2023-08-07T00:47:17;47.05;46.19;47.99;;
69615;Laerm;56821;52.486;4.680;2023-08-07T00:47:27;47.02;46.25;47.97;;
69615;Laerm;56821;52.486;4.680;2023-08-07T00:47:38;47.10;46.23;48.00;;
69615;Laerm;56821;52.486;4.680;2023-08-07T00:47:48;47.27;46.24;50.13;;
69615;Laerm;56821;52.486;4.680;2023-08-07T00:47:58;46.93;46.02;47.60;;
69615;Laerm;56821;52.486;4.680;2023-08-07T00:48:09;46.95;46.12;47.92;;
69615;Laerm;56821;52.486;4.680;2023-08-07T00:48:19;47.03;46.21;48.03;;
69615;Laerm;56821;52.486;4.680;2023-08-07T00:48:29;46.98;46.06;47.85;;
69615;Laerm;56821;52.486;4.680;2023-08-07T00:48:41;47.07;46.08;47.94;;
69615;Laerm;56821;52.486;4.680;2023-08-07T00:48:51;47.04;46.17;48.00;;
69615;Laerm;56821;52.486;4.680;2023-08-07T00:49:02;47.09;46.07;49.38;;
69615;Laerm;56821;52.486;4.680;2023-08-07T00:49:13;47.43;46.22;52.76;;
69615;Laerm;56821;52.486;4.680;2023-08-07T00:49:23;47.55;46.38;49.82;;
69615;Laerm;56821;52.486;4.680;2023-08-07T00:49:34;47.36;46.32;48.34;;
69615;Laerm;56821;52.486;4.680;2023-08-07T00:49:44;47.20;46.06;48.50;;
69615;Laerm;56821;52.486;4.680;2023-08-07T00:49:54;47.08;46.27;48.74;;
69615;Laerm;56821;52.486;4.680;2023-08-07T00:50:05;46.97;46.07;49.12;;
69615;Laerm;56821;52.486;4.680;2023-08-07T00:50:17;47.02;45.95;50.48;;
69615;Laerm;56821;52.486;4.680;2023-08-07T00:50:27;47.23;46.00;50.05;;
69615;Laerm;56821;52.486;4.680;2023-08-07T00:50:38;47.40;45.80;51.70;;
69615;Laerm;56821;52.486;4.680;2023-08-07T00:50:48;47.10;46.18;52.47;;
69615;Laerm;56821;52.486;4.680;2023-08-07T00:50:59;47.02;45.90;47.93;;
69615;Laerm;56821;52.486;4.680;2023-08-07T00:51:09;47.00;46.06;47.93;;
69615;Laerm;56821;52.486;4.680;2023-08-07T00:51:20;47.04;45.90;47.87;;
69615;Laerm;56821;52.486;4.680;2023-08-07T00:51:30;47.02;46.22;47.74;;
69615;Laerm;56821;52.486;4.680;2023-08-07T00:51:41;47.01;46.02;47.77;;
69615;Laerm;56821;52.486;4.680;2023-08-07T00:51:51;46.95;46.05;47.71;;
69615;Laerm;56821;52.486;4.680;2023-08-07T00:52:03;46.90;45.97;47.85;;
69615;Laerm;56821;52.486;4.680;2023-08-07T00:52:13;47.57;45.67;52.01;;
69615;Laerm;56821;52.486;4.680;2023-08-07T00:52:23;48.09;46.09;51.19;;
69615;Laerm;56821;52.486;4.680;2023-08-07T00:52:34;47.01;45.95;48.36;;
69615;Laerm;56821;52.486;4.680;2023-08-07T00:52:44;47.01;46.10;48.15;;
69615;Laerm;56821;52.486;4.680;2023-08-07T00:52:54;47.30;46.16;51.07;;
69615;Laerm;56821;52.486;4.680;2023-08-07T00:53:05;47.09;46.33;48.38;;
69615;Laerm;56821;52.486;4.680;2023-08-07T00:53:15;46.88;45.94;47.58;;
69615;Laerm;56821;52.486;4.680;2023-08-07T00:53:25;47.18;46.07;53.72;;
69615;Laerm;56821;52.486;4.680;2023-08-07T00:53:37;46.92;45.94;48.48;;
69615;Laerm;56821;52.486;4.680;2023-08-07T00:53:48;47.42;46.25;48.76;;
69615;Laerm;56821;52.486;4.680;2023-08-07T00:53:58;47.12;46.26;48.12;;
69615;Laerm;56821;52.486;4.680;2023-08-07T00:54:10;46.95;45.84;47.82;;
69615;Laerm;56821;52.486;4.680;2023-08-07T00:54:21;47.58;45.97;52.27;;
69615;Laerm;56821;52.486;4.680;2023-08-07T00:54:32;47.41;46.09;51.60;;
69615;Laerm;56821;52.486;4.680;2023-08-07T00:54:42;47.13;46.15;48.95;;
69615;Laerm;56821;52.486;4.680;2023-08-07T00:54:52;48.17;45.99;54.07;;
69615;Laerm;56821;52.486;4.680;2023-08-07T00:55:03;46.97;46.00;48.12;;
69615;Laerm;56821;52.486;4.680;2023-08-07T00:55:13;46.92;45.95;48.83;;
69615;Laerm;56821;52.486;4.680;2023-08-07T00:55:23;46.95;45.98;48.16;;
69615;Laerm;56821;52.486;4.680;2023-08-07T00:55:34;47.10;46.20;47.98;;
69615;Laerm;56821;52.486;4.680;2023-08-07T00:55:45;47.41;46.22;51.40;;
69615;Laerm;56821;52.486;4.680;2023-08-07T00:55:56;47.89;46.22;51.05;;
69615;Laerm;56821;52.486;4.680;2023-08-07T00:56:07;47.31;46.10;51.11;;
69615;Laerm;56821;52.486;4.680;2023-08-07T00:56:18;47.37;46.31;49.23;;
69615;Laerm;56821;52.486;4.680;2023-08-07T00:56:28;47.23;46.16;48.40;;
69615;Laerm;56821;52.486;4.680;2023-08-07T00:56:39;47.07;46.04;47.95;;
69615;Laerm;56821;52.486;4.680;2023-08-07T00:56:49;47.26;46.12;48.69;;
69615;Laerm;56821;52.486;4.680;2023-08-07T00:57:01;47.39;46.31;49.16;;
69615;Laerm;56821;52.486;4.680;2023-08-07T00:57:13;47.05;46.24;47.88;;
69615;Laerm;56821;52.486;4.680;2023-08-07T00:57:27;47.11;46.12;48.22;;
69615;Laerm;56821;52.486;4.680;2023-08-07T00:57:37;47.10;46.07;48.51;;
69615;Laerm;56821;52.486;4.680;2023-08-07T00:57:47;46.96;46.04;48.44;;
69615;Laerm;56821;52.486;4.680;2023-08-07T00:57:58;47.13;46.11;49.04;;
69615;Laerm;56821;52.486;4.680;2023-08-07T00:58:08;46.97;45.93;48.35;;
69615;Laerm;56821;52.486;4.680;2023-08-07T00:58:18;47.00;46.02;48.15;;
69615;Laerm;56821;52.486;4.680;2023-08-07T00:58:29;47.73;46.09;50.79;;
69615;Laerm;56821;52.486;4.680;2023-08-07T00:58:39;47.38;46.41;50.45;;